Canadian Empress — VX6095 — position and weather

sailwx.info

Track history (hours):
 
Tides and Currents Weather Stations Pressure Air Temp Water Temp Dewpoint Dewpoint Depression Visibility Wind Speed Wind Dir Waves Ship Positions

Canadian Empress

Last reported at 2014-Aug-20 16:26 UTC. Time now 2014-Aug-21 02:27 UTC.
Position N 45°35' W 074°26'.

Length 30 m.

Type: Passenger vessel. MMSI: 314954012.

Date/timePositionNaut miles runAvg speedWind from/ knotsBaromVisibWave heightAir tempDewpointWater temp
2014-Aug-20 16:26N 45°35' W 074°26'4 2.9
2014-Aug-20 15:15N 45°33' W 074°21'4 6.2
2014-Aug-20 14:33N 45°31' W 074°16'10 9.9
2014-Aug-20 13:33N 45°27' W 074°03'6 5.6
2014-Aug-20 12:33N 45°24' W 073°57'7 7.3
2014-Aug-20 11:33N 45°26' W 073°47'3 3.4
2014-Aug-20 10:33N 45°26' W 073°42'0 0.0
2014-Aug-19 19:05N 45°26' W 073°42'0 0.0
2014-Aug-19 18:33N 45°26' W 073°42'0 0.0
2014-Aug-19 17:33N 45°26' W 073°42'3 3.4
2014-Aug-19 16:33N 45°25' W 073°46'3 3.1
2014-Aug-19 15:33N 45°22' W 073°49'4 4.4
2014-Aug-19 14:33N 45°20' W 073°54'2 1.9
2014-Aug-19 13:33N 45°18' W 073°56'1 1.4
2014-Aug-19 12:33N 45°17' W 073°56'9 8.6
2014-Aug-19 11:33N 45°14' W 074°08'3 3.4
2014-Aug-19 10:33N 45°15' W 074°12'0 0.0
2014-Aug-18 23:08N 45°15' W 074°12'1 1.8
2014-Aug-18 22:33N 45°15' W 074°13'1111.4
2014-Aug-18 21:33N 45°08' W 074°26'1010.0
2014-Aug-18 20:33N 45°02' W 074°37'7 6.9
2014-Aug-18 19:33N 44°59' W 074°47'3 3.1
2014-Aug-18 18:33N 44°59' W 074°51'5 4.6
2014-Aug-18 17:33N 44°58' W 074°57'6 6.1
2014-Aug-18 16:33N 44°56' W 075°06'0 0.0
2014-Aug-18 15:33N 44°56' W 075°06'0 0.0
2014-Aug-18 14:33N 44°56' W 075°06'0 0.0
2014-Aug-18 13:33N 44°56' W 075°06'0 0.0
2014-Aug-18 00:10N 44°56' W 075°06'26 4.6
2014-Aug-17 18:27N 44°40' W 075°34'910.6
2014-Aug-17 17:33N 44°33' W 075°44'1110.6
2014-Aug-17 16:33N 44°24' W 075°51'3 1.0
2014-Aug-17 13:33N 44°22' W 075°55'20 1.4
2014-Aug-16 23:33N 44°16' W 076°21'6 5.7
2014-Aug-16 22:33N 44°14' W 076°29'0 0.0
2014-Aug-16 21:33N 44°14' W 076°29'0 0.0
2014-Aug-16 20:33N 44°14' W 076°29'0 0.0
2014-Aug-14 18:33N 44°14' W 076°29'3 2.7
2014-Aug-14 17:33N 44°14' W 076°25'7 7.1
2014-Aug-14 16:33N 44°18' W 076°17'5 5.0
2014-Aug-14 15:31N 44°19' W 076°10'0 0.0
2014-Aug-14 14:18N 44°19' W 076°10'0 0.3
2014-Aug-14 13:32N 44°19' W 076°09'11 0.6
2014-Aug-13 18:32N 44°21' W 075°55'8 5.8
2014-Aug-13 17:14N 44°27' W 075°49'6 9.3
2014-Aug-13 16:34N 44°33' W 075°44'3 0.2
2014-Aug-13 00:11N 44°35' W 075°41'0 0.0
2014-Aug-12 23:33N 44°35' W 075°41'3 3.1
2014-Aug-12 22:33N 44°37' W 075°38'7 7.1
2014-Aug-12 21:33N 44°42' W 075°31'0 0.0
2014-Aug-12 20:33N 44°42' W 075°31'4 4.4
2014-Aug-12 19:33N 44°45' W 075°26'7 6.8
2014-Aug-12 18:33N 44°50' W 075°19'7 7.1
2014-Aug-12 17:33N 44°53' W 075°10'4 4.4
2014-Aug-12 16:33N 44°56' W 075°06'0 0.0
2014-Aug-12 15:33N 44°56' W 075°06'0 0.0
2014-Aug-11 21:33N 44°56' W 075°05'9 9.3
2014-Aug-11 20:33N 44°58' W 074°53'4 4.4
2014-Aug-11 19:33N 44°59' W 074°47'6 5.5
2014-Aug-11 18:26N 45°01' W 074°39'7 8.0
2014-Aug-11 17:33N 45°05' W 074°30'8 8.0
2014-Aug-11 16:33N 45°10' W 074°21'8 8.0
2014-Aug-11 15:32N 45°14' W 074°11'7 7.6
2014-Aug-11 14:33N 45°14' W 074°00'5 5.5
2014-Aug-11 13:33N 45°18' W 073°56'2 2.1
2014-Aug-11 12:33N 45°20' W 073°54'9 9.0
2014-Aug-11 11:33N 45°25' W 073°44'2 1.6
2014-Aug-11 10:33N 45°26' W 073°42'0 0.0
2014-Aug-11 04:22N 45°26' W 073°42'1 1.6
2014-Aug-11 03:33N 45°25' W 073°43'2 1.9
2014-Aug-11 02:33N 45°25' W 073°41'5 4.7
2014-Aug-11 01:33N 45°24' W 073°34'3 3.1
2014-Aug-11 00:33N 45°26' W 073°30'4 3.8
2014-Aug-10 23:32N 45°30' W 073°31'2 2.4
2014-Aug-10 22:33N 45°32' W 073°32'2 0.6
2014-Aug-10 19:33N 45°30' W 073°33'5 5.0
2014-Aug-10 18:33N 45°35' W 073°30'8 7.6
2014-Aug-10 17:33N 45°42' W 073°27'8 7.9
2014-Aug-10 16:33N 45°48' W 073°20'  
Track history (hours):
 
Tides and Currents Weather Stations Pressure Air Temp Water Temp Dewpoint Dewpoint Depression Visibility Wind Speed Wind Dir Waves Ship Positions

Canadian Empress

Last reported at 2014-Aug-20 16:26 UTC. Time now 2014-Aug-21 02:27 UTC.
Position N 45°35' W 074°26'.

Length 30 m.

Type: Passenger vessel. MMSI: 314954012.

Date/timePositionNaut miles runAvg speedWind from/ knotsBaromVisibWave heightAir tempDewpointWater temp
2014-Aug-20 16:26N 45°35' W 074°26'4 2.9
2014-Aug-20 15:15N 45°33' W 074°21'4 6.2
2014-Aug-20 14:33N 45°31' W 074°16'10 9.9
2014-Aug-20 13:33N 45°27' W 074°03'6 5.6
2014-Aug-20 12:33N 45°24' W 073°57'7 7.3
2014-Aug-20 11:33N 45°26' W 073°47'3 3.4
2014-Aug-20 10:33N 45°26' W 073°42'0 0.0
2014-Aug-19 19:05N 45°26' W 073°42'0 0.0
2014-Aug-19 18:33N 45°26' W 073°42'0 0.0
2014-Aug-19 17:33N 45°26' W 073°42'3 3.4
2014-Aug-19 16:33N 45°25' W 073°46'3 3.1
2014-Aug-19 15:33N 45°22' W 073°49'4 4.4
2014-Aug-19 14:33N 45°20' W 073°54'2 1.9
2014-Aug-19 13:33N 45°18' W 073°56'1 1.4
2014-Aug-19 12:33N 45°17' W 073°56'9 8.6
2014-Aug-19 11:33N 45°14' W 074°08'3 3.4
2014-Aug-19 10:33N 45°15' W 074°12'0 0.0
2014-Aug-18 23:08N 45°15' W 074°12'1 1.8
2014-Aug-18 22:33N 45°15' W 074°13'1111.4
2014-Aug-18 21:33N 45°08' W 074°26'1010.0
2014-Aug-18 20:33N 45°02' W 074°37'7 6.9
2014-Aug-18 19:33N 44°59' W 074°47'3 3.1
2014-Aug-18 18:33N 44°59' W 074°51'5 4.6
2014-Aug-18 17:33N 44°58' W 074°57'6 6.1
2014-Aug-18 16:33N 44°56' W 075°06'0 0.0
2014-Aug-18 15:33N 44°56' W 075°06'0 0.0
2014-Aug-18 14:33N 44°56' W 075°06'0 0.0
2014-Aug-18 13:33N 44°56' W 075°06'0 0.0
2014-Aug-18 00:10N 44°56' W 075°06'26 4.6
2014-Aug-17 18:27N 44°40' W 075°34'910.6
2014-Aug-17 17:33N 44°33' W 075°44'1110.6
2014-Aug-17 16:33N 44°24' W 075°51'3 1.0
2014-Aug-17 13:33N 44°22' W 075°55'20 1.4
2014-Aug-16 23:33N 44°16' W 076°21'6 5.7
2014-Aug-16 22:33N 44°14' W 076°29'0 0.0
2014-Aug-16 21:33N 44°14' W 076°29'0 0.0
2014-Aug-16 20:33N 44°14' W 076°29'0 0.0
2014-Aug-14 18:33N 44°14' W 076°29'3 2.7
2014-Aug-14 17:33N 44°14' W 076°25'7 7.1
2014-Aug-14 16:33N 44°18' W 076°17'5 5.0
2014-Aug-14 15:31N 44°19' W 076°10'0 0.0
2014-Aug-14 14:18N 44°19' W 076°10'0 0.3
2014-Aug-14 13:32N 44°19' W 076°09'11 0.6
2014-Aug-13 18:32N 44°21' W 075°55'8 5.8
2014-Aug-13 17:14N 44°27' W 075°49'6 9.3
2014-Aug-13 16:34N 44°33' W 075°44'3 0.2
2014-Aug-13 00:11N 44°35' W 075°41'0 0.0
2014-Aug-12 23:33N 44°35' W 075°41'3 3.1
2014-Aug-12 22:33N 44°37' W 075°38'7 7.1
2014-Aug-12 21:33N 44°42' W 075°31'0 0.0
2014-Aug-12 20:33N 44°42' W 075°31'4 4.4
2014-Aug-12 19:33N 44°45' W 075°26'7 6.8
2014-Aug-12 18:33N 44°50' W 075°19'7 7.1
2014-Aug-12 17:33N 44°53' W 075°10'4 4.4
2014-Aug-12 16:33N 44°56' W 075°06'0 0.0
2014-Aug-12 15:33N 44°56' W 075°06'0 0.0
2014-Aug-11 21:33N 44°56' W 075°05'9 9.3
2014-Aug-11 20:33N 44°58' W 074°53'4 4.4
2014-Aug-11 19:33N 44°59' W 074°47'6 5.5
2014-Aug-11 18:26N 45°01' W 074°39'7 8.0
2014-Aug-11 17:33N 45°05' W 074°30'8 8.0
2014-Aug-11 16:33N 45°10' W 074°21'8 8.0
2014-Aug-11 15:32N 45°14' W 074°11'7 7.6
2014-Aug-11 14:33N 45°14' W 074°00'5 5.5
2014-Aug-11 13:33N 45°18' W 073°56'2 2.1
2014-Aug-11 12:33N 45°20' W 073°54'9 9.0
2014-Aug-11 11:33N 45°25' W 073°44'2 1.6
2014-Aug-11 10:33N 45°26' W 073°42'0 0.0
2014-Aug-11 04:22N 45°26' W 073°42'1 1.6
2014-Aug-11 03:33N 45°25' W 073°43'2 1.9
2014-Aug-11 02:33N 45°25' W 073°41'5 4.7
2014-Aug-11 01:33N 45°24' W 073°34'3 3.1
2014-Aug-11 00:33N 45°26' W 073°30'4 3.8
2014-Aug-10 23:32N 45°30' W 073°31'2 2.4
2014-Aug-10 22:33N 45°32' W 073°32'2 0.6
2014-Aug-10 19:33N 45°30' W 073°33'5 5.0
2014-Aug-10 18:33N 45°35' W 073°30'8 7.6
2014-Aug-10 17:33N 45°42' W 073°27'8 7.9
2014-Aug-10 16:33N 45°48' W 073°20'  

Dump ship's entire track history